Time,TemperatureF,DewpointF,PressureIn,WindDirection,WindDirectionDegrees,WindSpeedMPH,WindSpeedGustMPH,Humidity,HourlyPrecipIn,Conditions,Clouds,dailyrainin,SoftwareType,DateUTC
2013-11-11 00:01:00,55.4,51.0,30.20,ENE,65,0.0,1.0,84,0.00,,,0.00,weatherlink.com 1.10,2013-11-11 06:01:00,
2013-11-11 00:16:00,55.9,51.0,30.20,NW,316,0.0,1.0,82,0.00,,,0.00,weatherlink.com 1.10,2013-11-11 06:16:00,
2013-11-11 00:31:00,55.8,50.0,30.20,NE,53,0.0,2.0,81,0.00,,,0.00,weatherlink.com 1.10,2013-11-11 06:31:00,
2013-11-11 00:46:00,55.6,50.0,30.20,NNW,329,0.0,1.0,81,0.00,,,0.00,weatherlink.com 1.10,2013-11-11 06:46:00,
2013-11-11 01:01:00,55.3,50.0,30.20,NNE,27,1.0,2.0,82,0.00,,,0.00,weatherlink.com 1.10,2013-11-11 07:01:00,
2013-11-11 01:17:00,55.2,50.0,30.19,NNW,334,0.0,2.0,82,0.00,,,0.00,weatherlink.com 1.10,2013-11-11 07:17:00,
2013-11-11 01:32:00,54.6,50.0,30.19,NNE,23,1.0,2.0,83,0.00,,,0.00,weatherlink.com 1.10,2013-11-11 07:32:00,
2013-11-11 01:47:00,54.5,49.0,30.19,ENE,78,0.0,1.0,82,0.00,,,0.00,weatherlink.com 1.10,2013-11-11 07:47:00,
2013-11-11 02:02:00,53.7,49.0,30.19,NNW,345,0.0,1.0,84,0.00,,,0.00,weatherlink.com 1.10,2013-11-11 08:02:00,
2013-11-11 02:17:00,53.4,49.0,30.19,ENE,65,0.0,1.0,84,0.00,,,0.00,weatherlink.com 1.10,2013-11-11 08:17:00,
2013-11-11 02:32:00,52.9,49.0,30.18,ENE,62,0.0,1.0,85,0.00,,,0.00,weatherlink.com 1.10,2013-11-11 08:32:00,
2013-11-11 02:47:00,52.6,48.0,30.18,NE,37,0.0,1.0,85,0.00,,,0.00,weatherlink.com 1.10,2013-11-11 08:47:00,
2013-11-11 03:03:00,51.8,48.0,30.18,NE,37,0.0,1.0,86,0.00,,,0.00,weatherlink.com 1.10,2013-11-11 09:03:00,
2013-11-11 03:17:00,51.5,48.0,30.18,NE,37,0.0,0.0,87,0.00,,,0.00,weatherlink.com 1.10,2013-11-11 09:17:00,
2013-11-11 03:32:00,51.0,48.0,30.18,NNE,18,0.0,1.0,89,0.00,,,0.00,weatherlink.com 1.10,2013-11-11 09:32:00,
2013-11-11 03:47:00,51.0,48.0,30.18,NNE,12,0.0,0.0,88,0.00,,,0.00,weatherlink.com 1.10,2013-11-11 09:47:00,
2013-11-11 04:02:00,50.6,48.0,30.18,North,11,0.0,0.0,89,0.00,,,0.00,weatherlink.com 1.10,2013-11-11 10:02:00,
2013-11-11 04:17:00,50.3,47.0,30.18,NW,316,0.0,1.0,89,0.00,,,0.00,weatherlink.com 1.10,2013-11-11 10:17:00,
2013-11-11 04:32:00,50.3,47.0,30.18,NNE,30,0.0,1.0,89,0.00,,,0.00,weatherlink.com 1.10,2013-11-11 10:32:00,
2013-11-11 04:47:00,49.8,47.0,30.18,NNE,30,0.0,0.0,90,0.00,,,0.00,weatherlink.com 1.10,2013-11-11 10:47:00,
2013-11-11 05:02:00,48.9,47.0,30.19,North,6,0.0,0.0,92,0.00,,,0.00,weatherlink.com 1.10,2013-11-11 11:02:00,
2013-11-11 05:17:00,48.5,47.0,30.19,ENE,62,0.0,0.0,93,0.00,,,0.00,weatherlink.com 1.10,2013-11-11 11:17:00,
2013-11-11 05:32:00,47.9,46.0,30.19,ENE,62,0.0,0.0,94,0.00,,,0.00,weatherlink.com 1.10,2013-11-11 11:32:00,
2013-11-11 05:47:00,47.4,46.0,30.19,ENE,62,0.0,0.0,94,0.00,,,0.00,weatherlink.com 1.10,2013-11-11 11:47:00,
2013-11-11 06:17:00,46.5,45.0,30.20,NNE,30,0.0,0.0,95,0.00,,,0.00,weatherlink.com 1.10,2013-11-11 12:17:00,
2013-11-11 06:32:00,46.4,45.0,30.20,NNE,30,0.0,0.0,96,0.00,,,0.00,weatherlink.com 1.10,2013-11-11 12:32:00,
2013-11-11 06:47:00,47.5,47.0,30.20,NNE,30,0.0,0.0,97,0.00,,,0.00,weatherlink.com 1.10,2013-11-11 12:47:00,
2013-11-11 07:02:00,49.9,49.0,30.21,NE,39,0.0,1.0,97,0.00,,,0.00,weatherlink.com 1.10,2013-11-11 13:02:00,
2013-11-11 07:17:00,52.7,50.0,30.21,WNW,300,0.0,1.0,91,0.00,,,0.00,weatherlink.com 1.10,2013-11-11 13:17:00,
2013-11-11 07:32:00,55.2,50.0,30.21,NE,40,0.0,5.0,83,0.00,,,0.00,weatherlink.com 1.10,2013-11-11 13:32:00,
2013-11-11 07:47:00,57.1,50.0,30.22,ENE,65,1.0,4.0,78,0.00,,,0.00,weatherlink.com 1.10,2013-11-11 13:47:00,
2013-11-11 08:02:00,59.1,51.0,30.22,NNE,27,0.0,3.0,75,0.00,,,0.00,weatherlink.com 1.10,2013-11-11 14:02:00,
2013-11-11 08:18:00,60.3,52.0,30.22,East,93,2.0,6.0,73,0.00,,,0.00,weatherlink.com 1.10,2013-11-11 14:18:00,
2013-11-11 08:33:00,62.1,52.0,30.22,NE,36,3.0,4.0,70,0.00,,,0.00,weatherlink.com 1.10,2013-11-11 14:33:00,
2013-11-11 08:48:00,63.6,53.0,30.22,ENE,60,1.0,3.0,68,0.00,,,0.00,weatherlink.com 1.10,2013-11-11 14:48:00,
2013-11-11 09:03:00,64.8,52.0,30.22,ENE,66,0.0,4.0,64,0.00,,,0.00,weatherlink.com 1.10,2013-11-11 15:03:00,
2013-11-11 09:18:00,66.0,53.0,30.22,ENE,75,4.0,5.0,63,0.00,,,0.00,weatherlink.com 1.10,2013-11-11 15:18:00,
2013-11-11 09:33:00,67.3,53.0,30.22,ENE,70,2.0,5.0,60,0.00,,,0.00,weatherlink.com 1.10,2013-11-11 15:33:00,
2013-11-11 09:48:00,68.9,53.0,30.22,NE,46,2.0,4.0,57,0.00,,,0.00,weatherlink.com 1.10,2013-11-11 15:48:00,
2013-11-11 10:03:00,70.2,53.0,30.22,ENE,68,1.0,5.0,55,0.00,,,0.00,weatherlink.com 1.10,2013-11-11 16:03:00,
2013-11-11 10:18:00,71.5,53.0,30.21,East,88,2.0,5.0,52,0.00,,,0.00,weatherlink.com 1.10,2013-11-11 16:18:00,
2013-11-11 10:33:00,72.3,53.0,30.21,ENE,71,4.0,5.0,51,0.00,,,0.00,weatherlink.com 1.10,2013-11-11 16:33:00,
2013-11-11 10:48:00,73.6,52.0,30.21,ESE,109,2.0,5.0,47,0.00,,,0.00,weatherlink.com 1.10,2013-11-11 16:48:00,
2013-11-11 11:03:00,73.7,53.0,30.20,SE,136,2.0,6.0,48,0.00,,,0.00,weatherlink.com 1.10,2013-11-11 17:03:00,
2013-11-11 11:18:00,73.8,52.0,30.19,NE,37,1.0,7.0,47,0.00,,,0.00,weatherlink.com 1.10,2013-11-11 17:18:00,
2013-11-11 11:33:00,74.9,51.0,30.19,NNW,335,0.0,7.0,44,0.00,,,0.00,weatherlink.com 1.10,2013-11-11 17:33:00,
2013-11-11 11:48:00,74.9,52.0,30.18,ENE,72,2.0,7.0,45,0.00,,,0.00,weatherlink.com 1.10,2013-11-11 17:48:00,
2013-11-11 12:03:00,75.5,53.0,30.17,South,188,4.0,4.0,45,0.00,,,0.00,weatherlink.com 1.10,2013-11-11 18:03:00,
2013-11-11 12:18:00,76.2,51.0,30.16,East,82,2.0,6.0,42,0.00,,,0.00,weatherlink.com 1.10,2013-11-11 18:18:00,
2013-11-11 12:33:00,76.5,52.0,30.15,ENE,77,2.0,3.0,42,0.00,,,0.00,weatherlink.com 1.10,2013-11-11 18:33:00,
2013-11-11 12:48:00,76.4,52.0,30.15,East,88,2.0,6.0,43,0.00,,,0.00,weatherlink.com 1.10,2013-11-11 18:48:00,
2013-11-11 13:03:00,76.9,53.0,30.14,NE,35,1.0,4.0,44,0.00,,,0.00,weatherlink.com 1.10,2013-11-11 19:03:00,
2013-11-11 13:18:00,75.8,51.0,30.14,ESE,121,1.0,6.0,42,0.00,,,0.00,weatherlink.com 1.10,2013-11-11 19:18:00,
2013-11-11 13:34:00,75.8,52.0,30.13,ENE,70,3.0,6.0,43,0.00,,,0.00,weatherlink.com 1.10,2013-11-11 19:34:00,
2013-11-11 13:49:00,75.6,52.0,30.13,ENE,76,4.0,5.0,44,0.00,,,0.00,weatherlink.com 1.10,2013-11-11 19:49:00,
2013-11-11 14:04:00,75.8,53.0,30.13,ESE,115,2.0,5.0,45,0.00,,,0.00,weatherlink.com 1.10,2013-11-11 20:04:00,
2013-11-11 14:19:00,75.7,53.0,30.13,East,98,0.0,4.0,45,0.00,,,0.00,weatherlink.com 1.10,2013-11-11 20:19:00,
2013-11-11 14:34:00,75.8,54.0,30.12,SSE,166,0.0,5.0,47,0.00,,,0.00,weatherlink.com 1.10,2013-11-11 20:34:00,
2013-11-11 14:49:00,76.6,52.0,30.12,NE,53,2.0,3.0,43,0.00,,,0.00,weatherlink.com 1.10,2013-11-11 20:49:00,
2013-11-11 15:04:00,75.9,55.0,30.12,ESE,120,4.0,4.0,48,0.00,,,0.00,weatherlink.com 1.10,2013-11-11 21:04:00,
2013-11-11 15:19:00,75.5,55.0,30.12,ESE,113,5.0,5.0,49,0.00,,,0.00,weatherlink.com 1.10,2013-11-11 21:19:00,
2013-11-11 15:34:00,75.3,55.0,30.12,SE,141,0.0,3.0,49,0.00,,,0.00,weatherlink.com 1.10,2013-11-11 21:34:00,
2013-11-11 15:49:00,73.6,54.0,30.12,SSE,148,0.0,4.0,51,0.00,,,0.00,weatherlink.com 1.10,2013-11-11 21:49:00,
2013-11-11 16:04:00,72.6,55.0,30.12,SSE,156,0.0,3.0,54,0.00,,,0.00,weatherlink.com 1.10,2013-11-11 22:04:00,
2013-11-11 16:19:00,71.3,57.0,30.13,SE,136,0.0,1.0,60,0.00,,,0.00,weatherlink.com 1.10,2013-11-11 22:19:00,
2013-11-11 16:34:00,70.1,57.0,30.13,SSW,194,0.0,1.0,64,0.00,,,0.00,weatherlink.com 1.10,2013-11-11 22:34:00,
2013-11-11 16:49:00,68.3,58.0,30.13,SSW,194,0.0,0.0,69,0.00,,,0.00,weatherlink.com 1.10,2013-11-11 22:49:00,
2013-11-11 17:04:00,65.8,57.0,30.13,SSW,194,0.0,0.0,73,0.00,,,0.00,weatherlink.com 1.10,2013-11-11 23:04:00,
2013-11-11 17:19:00,64.0,56.0,30.13,SSW,194,0.0,0.0,76,0.00,,,0.00,weatherlink.com 1.10,2013-11-11 23:19:00,
2013-11-11 17:34:00,62.4,57.0,30.13,SSW,194,0.0,0.0,81,0.00,,,0.00,weatherlink.com 1.10,2013-11-11 23:34:00,
2013-11-11 17:49:00,60.9,56.0,30.13,SSW,194,0.0,0.0,85,0.00,,,0.00,weatherlink.com 1.10,2013-11-11 23:49:00,
2013-11-11 18:04:00,60.1,56.0,30.14,SSW,194,0.0,0.0,87,0.00,,,0.00,weatherlink.com 1.10,2013-11-12 00:04:00,
2013-11-11 18:19:00,59.3,56.0,30.14,SSW,194,0.0,0.0,89,0.00,,,0.00,weatherlink.com 1.10,2013-11-12 00:19:00,
2013-11-11 18:34:00,58.5,55.0,30.15,SSW,194,0.0,0.0,89,0.00,,,0.00,weatherlink.com 1.10,2013-11-12 00:34:00,
2013-11-11 18:49:00,57.8,55.0,30.15,SSW,195,0.0,0.0,91,0.00,,,0.00,weatherlink.com 1.10,2013-11-12 00:49:00,
2013-11-11 19:04:00,57.0,55.0,30.15,SSW,194,0.0,0.0,93,0.00,,,0.00,weatherlink.com 1.10,2013-11-12 01:04:00,
2013-11-11 19:19:00,56.3,55.0,30.16,SSW,194,0.0,0.0,94,0.00,,,0.00,weatherlink.com 1.10,2013-11-12 01:19:00,
2013-11-11 19:34:00,55.4,54.0,30.15,SSW,194,0.0,0.0,95,0.00,,,0.00,weatherlink.com 1.10,2013-11-12 01:34:00,
2013-11-11 19:49:00,55.0,54.0,30.16,SSW,195,0.0,0.0,95,0.00,,,0.00,weatherlink.com 1.10,2013-11-12 01:49:00,
2013-11-11 20:04:00,54.8,54.0,30.16,SSW,194,0.0,0.0,96,0.00,,,0.00,weatherlink.com 1.10,2013-11-12 02:04:00,
2013-11-11 20:19:00,54.3,53.0,30.16,SSW,194,0.0,0.0,96,0.00,,,0.00,weatherlink.com 1.10,2013-11-12 02:19:00,
2013-11-11 20:34:00,54.0,53.0,30.17,SSW,194,0.0,0.0,96,0.00,,,0.00,weatherlink.com 1.10,2013-11-12 02:34:00,
2013-11-11 20:49:00,53.7,53.0,30.17,SSW,195,0.0,0.0,97,0.00,,,0.00,weatherlink.com 1.10,2013-11-12 02:49:00,
2013-11-11 21:04:00,53.1,52.0,30.17,SSW,195,0.0,0.0,97,0.00,,,0.00,weatherlink.com 1.10,2013-11-12 03:04:00,
2013-11-11 21:19:00,53.1,53.0,30.17,SSW,194,0.0,0.0,98,0.00,,,0.00,weatherlink.com 1.10,2013-11-12 03:19:00,
2013-11-11 21:34:00,53.1,53.0,30.18,SSW,194,0.0,0.0,98,0.00,,,0.00,weatherlink.com 1.10,2013-11-12 03:34:00,
2013-11-11 21:49:00,52.5,52.0,30.18,SSW,194,0.0,0.0,98,0.00,,,0.00,weatherlink.com 1.10,2013-11-12 03:49:00,
2013-11-11 22:04:00,52.6,52.0,30.17,SSW,194,0.0,0.0,98,0.00,,,0.00,weatherlink.com 1.10,2013-11-12 04:04:00,
2013-11-11 22:19:00,51.5,51.0,30.17,SSW,194,0.0,0.0,98,0.00,,,0.00,weatherlink.com 1.10,2013-11-12 04:19:00,
2013-11-11 22:34:00,51.5,51.0,30.17,SSW,194,0.0,0.0,98,0.00,,,0.00,weatherlink.com 1.10,2013-11-12 04:34:00,
2013-11-11 22:49:00,51.0,51.0,30.17,SSW,194,0.0,0.0,99,0.00,,,0.00,weatherlink.com 1.10,2013-11-12 04:49:00,
2013-11-11 23:04:00,51.2,51.0,30.17,SSW,194,0.0,0.0,99,0.00,,,0.00,weatherlink.com 1.10,2013-11-12 05:04:00,
2013-11-11 23:19:00,51.0,51.0,30.17,SSW,194,0.0,0.0,99,0.00,,,0.00,weatherlink.com 1.10,2013-11-12 05:19:00,
2013-11-11 23:34:00,50.6,50.0,30.16,SSW,194,0.0,0.0,99,0.00,,,0.00,weatherlink.com 1.10,2013-11-12 05:34:00,
2013-11-11 23:49:00,50.3,50.0,30.16,SSW,194,0.0,0.0,99,0.00,,,0.00,weatherlink.com 1.10,2013-11-12 05:49:00,